Time;durP1;ratioP1;P1;durP2;ratioP2;P2;SDS_P1;SDS_P2;PMS_P1;PMS_P2;Temp;Humidity;BMP_temperature;BMP_pressure;BME280_temperature;BME280_humidity;BME280_pressure;Samples;Min_cycle;Max_cycle;Signal;HPM_P1;HPM_P2
2022/11/15 00:06:05;;;;;;;561.67;431.43;;;;;;;;;;6091144;23;1971799;-76
2022/11/15 00:08:32;;;;;;;562.45;430.00;;;;;;;;;;6139828;23;20413;-76
2022/11/15 00:10:59;;;;;;;559.97;424.70;;;;;;;;;;6141394;23;20397;-76
2022/11/15 00:13:25;;;;;;;559.35;423.48;;;;;;;;;;6140567;23;20503;-75
2022/11/15 00:15:51;;;;;;;560.67;425.00;;;;;;;;;;6141320;23;20384;-75
2022/11/15 00:18:17;;;;;;;561.28;422.90;;;;;;;;;;6116887;23;20393;-76
2022/11/15 00:20:43;;;;;;;560.95;420.48;;;;;;;;;;6140554;23;20389;-76
2022/11/15 00:23:09;;;;;;;569.95;449.20;;;;;;;;;;6139406;23;20822;-76
2022/11/15 00:25:36;;;;;;;558.42;416.88;;;;;;;;;;6141939;23;20912;-76
2022/11/15 00:28:02;;;;;;;563.77;427.30;;;;;;;;;;6139244;23;20440;-75
2022/11/15 00:30:28;;;;;;;561.13;424.30;;;;;;;;;;6140549;23;20389;-77
2022/11/15 00:32:54;;;;;;;564.47;436.40;;;;;;;;;;6140620;23;20407;-77
2022/11/15 00:35:20;;;;;;;568.67;448.40;;;;;;;;;;6140504;23;20459;-77
2022/11/15 00:37:47;;;;;;;567.30;445.67;;;;;;;;;;6141710;23;20401;-77
2022/11/15 00:40:13;;;;;;;557.75;414.08;;;;;;;;;;6141374;23;20848;-77
2022/11/15 00:42:40;;;;;;;561.30;423.67;;;;;;;;;;6140011;23;20381;-76
2022/11/15 00:45:06;;;;;;;560.08;421.55;;;;;;;;;;6140153;23;20439;-77
2022/11/15 00:47:32;;;;;;;559.30;420.35;;;;;;;;;;6140592;23;20724;-77
2022/11/15 00:49:58;;;;;;;558.53;416.50;;;;;;;;;;6140619;23;20490;-77
2022/11/15 00:52:24;;;;;;;562.42;425.85;;;;;;;;;;6140596;23;20389;-77
2022/11/15 00:54:50;;;;;;;563.63;430.95;;;;;;;;;;6140040;23;20440;-77
2022/11/15 00:57:16;;;;;;;561.30;421.65;;;;;;;;;;6141696;23;20473;-77
2022/11/15 00:59:42;;;;;;;559.33;420.27;;;;;;;;;;6116080;23;20420;-77
2022/11/15 01:02:08;;;;;;;562.03;424.25;;;;;;;;;;6116686;23;21247;-76
2022/11/15 01:04:34;;;;;;;561.17;423.07;;;;;;;;;;6139792;23;20424;-77
2022/11/15 01:07:00;;;;;;;561.33;424.95;;;;;;;;;;6140040;23;20388;-77
2022/11/15 01:09:27;;;;;;;561.28;423.70;;;;;;;;;;6140119;23;20464;-77
2022/11/15 01:11:53;;;;;;;561.15;424.35;;;;;;;;;;6116449;23;20413;-77
2022/11/15 01:14:19;;;;;;;560.78;421.23;;;;;;;;;;6139350;23;20423;-77
2022/11/15 01:16:45;;;;;;;562.00;426.52;;;;;;;;;;6139501;23;20696;-77
2022/11/15 01:19:11;;;;;;;561.85;425.38;;;;;;;;;;6139355;23;20480;-77
2022/11/15 01:21:37;;;;;;;562.90;427.20;;;;;;;;;;6139962;23;20377;-77
2022/11/15 01:24:03;;;;;;;560.53;420.40;;;;;;;;;;6115632;23;20373;-77
2022/11/15 01:26:29;;;;;;;559.58;415.85;;;;;;;;;;6140794;23;20435;-77
2022/11/15 01:28:55;;;;;;;559.30;419.63;;;;;;;;;;6140163;23;20388;-77
2022/11/15 01:31:22;;;;;;;562.03;422.13;;;;;;;;;;6139754;23;20505;-77
2022/11/15 01:33:48;;;;;;;561.15;421.45;;;;;;;;;;6139588;23;20385;-77
2022/11/15 01:36:16;;;;;;;560.75;418.85;;;;;;;;;;6139676;23;20911;-77
2022/11/15 01:38:42;;;;;;;559.53;415.37;;;;;;;;;;6140546;23;20880;-77
2022/11/15 01:41:15;;;;;;;557.80;412.42;;;;;;;;;;6140938;23;20389;-76
2022/11/15 01:43:41;;;;;;;557.45;409.80;;;;;;;;;;6139748;23;20392;-77
2022/11/15 01:46:18;;;;;;;560.60;412.73;;;;;;;;;;6114615;23;20377;-77
2022/11/15 01:48:44;;;;;;;559.33;409.67;;;;;;;;;;6111631;23;20385;-77
2022/11/15 01:51:12;;;;;;;557.83;406.50;;;;;;;;;;6139913;23;20459;-77
2022/11/15 01:53:40;;;;;;;556.45;399.90;;;;;;;;;;6140785;23;20531;-77
2022/11/15 01:56:08;;;;;;;557.58;404.98;;;;;;;;;;6140111;23;20381;-77
2022/11/15 01:58:34;;;;;;;555.72;401.60;;;;;;;;;;6115368;23;20397;-77
2022/11/15 02:01:01;;;;;;;559.42;409.70;;;;;;;;;;6139484;23;20471;-77
2022/11/15 02:03:31;;;;;;;558.20;405.20;;;;;;;;;;6115677;23;20369;-77
2022/11/15 02:05:58;;;;;;;558.33;405.38;;;;;;;;;;6138920;23;20784;-77
2022/11/15 02:08:24;;;;;;;557.03;402.43;;;;;;;;;;6138748;23;20384;-77
2022/11/15 02:10:50;;;;;;;557.88;403.40;;;;;;;;;;6138901;23;20413;-76
2022/11/15 02:13:17;;;;;;;560.78;408.50;;;;;;;;;;6138987;23;20917;-76
2022/11/15 02:15:58;;;;;;;558.15;403.55;;;;;;;;;;6139791;23;20384;-76
2022/11/15 02:18:36;;;;;;;556.73;403.47;;;;;;;;;;6116168;23;20408;-76
2022/11/15 02:21:22;;;;;;;558.65;403.52;;;;;;;;;;6114781;23;20439;-77
2022/11/15 02:24:03;;;;;;;557.13;402.35;;;;;;;;;;6115548;23;20373;-77
2022/11/15 02:27:01;;;;;;;557.03;404.40;;;;;;;;;;6138768;23;20741;-77
2022/11/15 02:29:27;;;;;;;558.45;407.92;;;;;;;;;;6059700;23;20394;-77
2022/11/15 02:32:02;;;;;;;557.38;406.00;;;;;;;;;;6138717;23;20378;-76
2022/11/15 02:34:31;;;;;;;557.63;403.75;;;;;;;;;;6139624;23;20504;-77
2022/11/15 02:37:06;;;;;;;558.40;410.02;;;;;;;;;;6139898;23;20400;-77
2022/11/15 02:39:40;;;;;;;556.42;406.95;;;;;;;;;;6115655;23;20397;-77
2022/11/15 02:45:04;;;;;;;556.25;407.63;;;;;;;;;;6138671;23;20389;-77
2022/11/15 02:47:33;;;;;;;555.33;404.30;;;;;;;;;;6115427;23;20381;-77
2022/11/15 02:50:00;;;;;;;555.97;407.40;;;;;;;;;;6139449;23;20703;-77
2022/11/15 02:52:27;;;;;;;555.45;405.80;;;;;;;;;;6139598;23;20373;-77
2022/11/15 02:54:57;;;;;;;557.10;414.13;;;;;;;;;;6115908;23;20410;-77
2022/11/15 02:57:35;;;;;;;555.65;406.52;;;;;;;;;;6115271;23;20381;-77
2022/11/15 03:00:03;;;;;;;555.63;409.35;;;;;;;;;;6140209;23;20468;-77
2022/11/15 03:02:48;;;;;;;556.33;408.70;;;;;;;;;;6138741;23;20462;-77
2022/11/15 03:05:20;;;;;;;557.72;408.63;;;;;;;;;;6139061;23;20393;-77
2022/11/15 03:07:52;;;;;;;556.35;410.75;;;;;;;;;;6138442;23;20404;-77
2022/11/15 03:10:23;;;;;;;558.30;415.55;;;;;;;;;;6139076;23;20378;-77
2022/11/15 03:12:52;;;;;;;557.00;408.90;;;;;;;;;;6115569;23;20377;-77
2022/11/15 03:15:21;;;;;;;559.90;419.10;;;;;;;;;;6139019;23;20441;-77
2022/11/15 03:17:57;;;;;;;556.03;404.45;;;;;;;;;;6139546;23;20480;-77
2022/11/15 03:20:25;;;;;;;557.45;411.52;;;;;;;;;;6141041;23;20404;-77
2022/11/15 03:22:51;;;;;;;556.92;408.75;;;;;;;;;;6116553;23;20376;-77
2022/11/15 03:25:19;;;;;;;555.83;406.63;;;;;;;;;;6141885;23;20380;-77
2022/11/15 03:27:48;;;;;;;555.60;407.65;;;;;;;;;;6116038;23;20365;-77
2022/11/15 03:30:15;;;;;;;557.40;409.75;;;;;;;;;;6142005;23;20395;-77
2022/11/15 03:32:44;;;;;;;558.08;413.50;;;;;;;;;;6116849;23;20388;-77
2022/11/15 03:35:13;;;;;;;557.03;422.23;;;;;;;;;;6116481;23;20456;-77
2022/11/15 03:37:46;;;;;;;557.97;411.20;;;;;;;;;;6141302;23;20380;-77
2022/11/15 03:40:13;;;;;;;555.88;402.23;;;;;;;;;;6117773;23;20694;-77
2022/11/15 03:42:44;;;;;;;557.47;409.43;;;;;;;;;;6117641;23;20451;-77
2022/11/15 03:45:18;;;;;;;558.47;412.50;;;;;;;;;;6117017;23;20826;-77
2022/11/15 03:47:47;;;;;;;555.10;403.77;;;;;;;;;;6117263;23;20939;-77
2022/11/15 03:50:16;;;;;;;556.33;406.75;;;;;;;;;;6140804;23;20452;-77
2022/11/15 03:52:42;;;;;;;557.70;410.45;;;;;;;;;;6116794;23;20381;-77
2022/11/15 03:55:11;;;;;;;557.35;411.40;;;;;;;;;;6116459;23;20376;-77
2022/11/15 03:57:38;;;;;;;555.70;407.25;;;;;;;;;;6140207;23;20848;-77
2022/11/15 04:00:04;;;;;;;559.07;415.13;;;;;;;;;;6138962;23;20369;-77
2022/11/15 04:02:31;;;;;;;558.47;412.88;;;;;;;;;;6141305;23;20388;-77
2022/11/15 04:04:57;;;;;;;558.67;413.88;;;;;;;;;;6115893;23;20389;-77
2022/11/15 04:07:23;;;;;;;557.47;414.10;;;;;;;;;;6115483;23;20835;-77
2022/11/15 04:10:05;;;;;;;558.13;415.77;;;;;;;;;;6140923;23;20447;-77
2022/11/15 04:12:31;;;;;;;560.88;422.75;;;;;;;;;;6141554;23;20913;-77
2022/11/15 04:15:07;;;;;;;558.30;417.60;;;;;;;;;;6141652;23;20416;-77
2022/11/15 04:17:33;;;;;;;559.80;420.25;;;;;;;;;;6116797;23;20420;-77
2022/11/15 04:25:29;;;;;;;557.83;417.48;;;;;;;;;;6168067;23;20926;-77
2022/11/15 04:27:55;;;;;;;559.40;420.88;;;;;;;;;;6141362;23;20397;-77
2022/11/15 04:30:21;;;;;;;560.97;424.75;;;;;;;;;;6140919;23;20382;-77
2022/11/15 04:32:47;;;;;;;562.88;421.95;;;;;;;;;;6140970;23;20416;-77
2022/11/15 04:35:13;;;;;;;559.00;419.58;;;;;;;;;;6141326;23;20393;-77
2022/11/15 04:37:39;;;;;;;560.78;421.67;;;;;;;;;;6116069;23;20384;-77
2022/11/15 04:40:05;;;;;;;561.53;427.67;;;;;;;;;;6141259;23;20891;-77
2022/11/15 04:42:31;;;;;;;558.50;420.67;;;;;;;;;;6140723;23;20467;-77
2022/11/15 04:44:57;;;;;;;561.70;429.70;;;;;;;;;;6140727;23;20377;-77
2022/11/15 04:47:23;;;;;;;561.88;429.00;;;;;;;;;;6138952;23;20407;-77
2022/11/15 04:49:49;;;;;;;560.58;425.63;;;;;;;;;;6141574;23;20472;-77
2022/11/15 04:52:15;;;;;;;561.63;426.13;;;;;;;;;;6139751;23;20405;-77
2022/11/15 04:54:42;;;;;;;560.28;425.30;;;;;;;;;;6141326;23;20968;-77
2022/11/15 04:57:08;;;;;;;559.90;426.35;;;;;;;;;;6141388;23;20369;-77
2022/11/15 04:59:34;;;;;;;560.17;424.27;;;;;;;;;;6140636;23;20845;-77
2022/11/15 05:02:00;;;;;;;560.42;426.38;;;;;;;;;;6140366;23;21290;-77
2022/11/15 05:04:26;;;;;;;561.28;426.10;;;;;;;;;;6140280;23;20377;-77
2022/11/15 05:06:52;;;;;;;559.75;426.45;;;;;;;;;;6141226;23;20507;-77
2022/11/15 05:09:19;;;;;;;561.45;430.02;;;;;;;;;;6141113;23;20451;-77
2022/11/15 05:11:46;;;;;;;561.28;431.45;;;;;;;;;;6116272;23;20380;-77
2022/11/15 05:14:12;;;;;;;561.72;430.85;;;;;;;;;;6114822;23;20484;-77
2022/11/15 05:16:38;;;;;;;559.53;426.80;;;;;;;;;;6140782;23;20832;-77
2022/11/15 05:19:04;;;;;;;560.22;427.50;;;;;;;;;;6140596;23;20810;-77
2022/11/15 05:21:31;;;;;;;560.03;428.70;;;;;;;;;;6116771;23;20897;-77
2022/11/15 05:23:57;;;;;;;560.33;427.15;;;;;;;;;;6139811;23;20381;-77
2022/11/15 05:26:23;;;;;;;561.67;428.42;;;;;;;;;;6140907;23;20837;-77
2022/11/15 05:28:55;;;;;;;559.60;426.60;;;;;;;;;;6139818;23;20790;-76
2022/11/15 05:31:21;;;;;;;559.70;427.92;;;;;;;;;;6139894;23;20482;-77
2022/11/15 05:33:47;;;;;;;562.42;432.10;;;;;;;;;;6140581;23;20456;-77
2022/11/15 05:36:27;;;;;;;563.63;442.00;;;;;;;;;;6116997;23;20762;-77
2022/11/15 05:38:53;;;;;;;561.55;434.77;;;;;;;;;;6115468;23;20373;-77
2022/11/15 05:41:21;;;;;;;571.28;474.30;;;;;;;;;;6114670;23;20377;-77
2022/11/15 05:43:48;;;;;;;561.67;436.77;;;;;;;;;;6140358;23;20431;-77
2022/11/15 05:46:14;;;;;;;562.78;442.25;;;;;;;;;;6139605;23;20472;-77
2022/11/15 05:48:41;;;;;;;562.97;443.60;;;;;;;;;;6139356;23;20409;-77
2022/11/15 05:51:08;;;;;;;561.45;446.13;;;;;;;;;;6138832;23;20555;-77
2022/11/15 05:53:35;;;;;;;568.90;463.20;;;;;;;;;;6141047;23;20605;-77
2022/11/15 05:56:01;;;;;;;570.47;466.90;;;;;;;;;;6139954;23;20821;-77
2022/11/15 05:58:27;;;;;;;568.75;509.33;;;;;;;;;;6139544;23;20428;-77
2022/11/15 06:00:54;;;;;;;578.75;523.13;;;;;;;;;;6114658;23;20820;-77
2022/11/15 06:03:20;;;;;;;577.00;520.13;;;;;;;;;;6140810;23;20884;-77
2022/11/15 06:05:47;;;;;;;586.88;534.85;;;;;;;;;;6138069;23;20481;-77
2022/11/15 06:08:13;;;;;;;571.30;512.05;;;;;;;;;;6140765;23;20764;-77
2022/11/15 06:10:39;;;;;;;576.58;492.35;;;;;;;;;;6140297;23;20373;-77
2022/11/15 06:13:05;;;;;;;566.75;460.30;;;;;;;;;;6115942;23;20955;-77
2022/11/15 06:15:33;;;;;;;568.05;461.40;;;;;;;;;;6138555;23;20666;-77
2022/11/15 06:17:59;;;;;;;567.15;461.17;;;;;;;;;;6140063;23;21028;-77
2022/11/15 06:20:26;;;;;;;566.05;459.70;;;;;;;;;;6140006;23;20531;-77
2022/11/15 06:22:56;;;;;;;568.97;463.35;;;;;;;;;;6138910;23;20525;-79
2022/11/15 06:25:22;;;;;;;566.30;460.20;;;;;;;;;;6139208;23;20373;-79
2022/11/15 06:27:52;;;;;;;567.53;464.00;;;;;;;;;;6139849;23;20369;-80
2022/11/15 06:30:18;;;;;;;567.00;462.52;;;;;;;;;;6139197;23;20384;-79
2022/11/15 06:32:44;;;;;;;570.97;471.50;;;;;;;;;;6139778;23;20441;-80
2022/11/15 06:35:10;;;;;;;567.13;464.85;;;;;;;;;;6139989;23;20890;-79
2022/11/15 06:37:36;;;;;;;568.30;466.67;;;;;;;;;;6140134;23;20377;-80
2022/11/15 06:40:02;;;;;;;569.33;470.42;;;;;;;;;;6139275;23;20489;-80
2022/11/15 06:42:28;;;;;;;569.78;471.40;;;;;;;;;;6139688;23;20470;-81
2022/11/15 06:44:54;;;;;;;569.85;472.52;;;;;;;;;;6138859;23;20472;-77
2022/11/15 06:47:20;;;;;;;570.58;476.92;;;;;;;;;;6134054;23;21079;-77
2022/11/15 06:49:46;;;;;;;571.20;476.08;;;;;;;;;;6138913;23;20429;-76
2022/11/15 06:52:12;;;;;;;569.80;475.95;;;;;;;;;;6140191;23;20378;-76
2022/11/15 06:54:38;;;;;;;575.28;476.50;;;;;;;;;;6138800;23;20376;-76
2022/11/15 06:57:05;;;;;;;572.17;483.07;;;;;;;;;;6139308;23;20369;-77
2022/11/15 06:59:31;;;;;;;570.75;483.38;;;;;;;;;;6138984;23;20887;-76
2022/11/15 07:01:57;;;;;;;573.53;485.80;;;;;;;;;;6140068;23;20381;-76
2022/11/15 07:04:23;;;;;;;573.22;488.92;;;;;;;;;;6139850;23;20381;-76
2022/11/15 07:06:49;;;;;;;572.13;489.03;;;;;;;;;;6139821;23;20392;-76
2022/11/15 07:09:15;;;;;;;574.97;496.27;;;;;;;;;;6115201;23;20917;-76
2022/11/15 07:11:41;;;;;;;574.67;493.33;;;;;;;;;;6140113;23;20436;-76
2022/11/15 07:14:07;;;;;;;573.75;497.80;;;;;;;;;;6139348;23;20373;-76
2022/11/15 07:16:33;;;;;;;575.28;496.30;;;;;;;;;;6139052;23;20365;-76
2022/11/15 07:18:59;;;;;;;575.87;501.97;;;;;;;;;;6139982;23;20940;-76
2022/11/15 07:21:25;;;;;;;576.38;503.33;;;;;;;;;;6137400;23;20389;-75
2022/11/15 07:23:51;;;;;;;574.15;496.50;;;;;;;;;;6138763;23;21029;-75
2022/11/15 07:26:17;;;;;;;576.40;502.17;;;;;;;;;;6115349;23;20708;-75
2022/11/15 07:28:43;;;;;;;573.95;498.50;;;;;;;;;;6140069;23;20392;-75
2022/11/15 07:31:09;;;;;;;574.05;498.00;;;;;;;;;;6139535;23;20369;-76
2022/11/15 07:33:36;;;;;;;576.78;503.70;;;;;;;;;;6138761;23;20401;-77
2022/11/15 07:36:03;;;;;;;576.38;505.15;;;;;;;;;;6139509;23;20614;-77
2022/11/15 07:38:29;;;;;;;576.10;507.55;;;;;;;;;;6139006;23;20666;-77
2022/11/15 07:41:02;;;;;;;577.33;512.90;;;;;;;;;;6140067;23;20884;-77
2022/11/15 07:43:29;;;;;;;579.47;515.27;;;;;;;;;;6138720;23;20400;-77
2022/11/15 07:45:55;;;;;;;579.42;515.22;;;;;;;;;;6138953;23;20883;-77
2022/11/15 07:48:22;;;;;;;578.90;513.13;;;;;;;;;;6137898;23;20401;-77
2022/11/15 07:50:48;;;;;;;581.00;516.80;;;;;;;;;;6115345;23;20507;-76
2022/11/15 07:53:15;;;;;;;577.33;512.25;;;;;;;;;;6140325;23;20800;-77
2022/11/15 07:55:41;;;;;;;585.58;521.00;;;;;;;;;;6114238;23;20456;-76
2022/11/15 07:58:11;;;;;;;586.28;521.78;;;;;;;;;;6137473;23;20384;-77
2022/11/15 08:00:37;;;;;;;585.72;521.33;;;;;;;;;;6164314;23;20680;-77
2022/11/15 08:03:08;;;;;;;590.03;525.53;;;;;;;;;;6138590;23;20705;-76
2022/11/15 08:05:35;;;;;;;591.03;526.42;;;;;;;;;;6139236;23;20416;-76
2022/11/15 08:08:01;;;;;;;584.53;520.15;;;;;;;;;;6140413;23;20408;-76
2022/11/15 08:10:28;;;;;;;591.85;527.30;;;;;;;;;;6140018;23;20377;-76
2022/11/15 08:12:58;;;;;;;598.70;533.78;;;;;;;;;;6139835;23;20373;-77
2022/11/15 08:15:24;;;;;;;591.72;527.22;;;;;;;;;;6140733;23;20370;-77
2022/11/15 08:17:54;;;;;;;593.83;529.17;;;;;;;;;;6166693;23;20365;-77
2022/11/15 08:20:20;;;;;;;599.90;535.10;;;;;;;;;;6116029;23;20381;-77
2022/11/15 08:22:46;;;;;;;601.45;536.65;;;;;;;;;;6140262;23;20365;-77
2022/11/15 08:25:12;;;;;;;596.88;532.28;;;;;;;;;;6140599;23;21034;-77
2022/11/15 08:27:38;;;;;;;603.47;538.57;;;;;;;;;;6166059;23;20385;-77
2022/11/15 08:30:05;;;;;;;607.08;542.13;;;;;;;;;;6165672;23;20406;-76
2022/11/15 08:32:31;;;;;;;605.42;540.53;;;;;;;;;;6167599;23;20740;-77
2022/11/15 08:34:57;;;;;;;613.65;548.45;;;;;;;;;;6140291;23;20981;-77
2022/11/15 08:37:23;;;;;;;614.53;549.33;;;;;;;;;;6138292;23;20378;-76
2022/11/15 08:39:49;;;;;;;615.53;550.30;;;;;;;;;;6140159;23;20382;-77
2022/11/15 08:42:16;;;;;;;611.00;546.00;;;;;;;;;;6141365;23;20377;-77
2022/11/15 08:44:42;;;;;;;618.67;553.47;;;;;;;;;;6140784;23;20380;-77
2022/11/15 08:47:11;;;;;;;614.80;549.75;;;;;;;;;;6138543;23;20376;-76
2022/11/15 08:49:37;;;;;;;620.80;555.60;;;;;;;;;;6116474;23;20389;-77
2022/11/15 08:52:04;;;;;;;618.63;553.40;;;;;;;;;;6140148;23;20385;-77
2022/11/15 08:54:30;;;;;;;623.45;558.15;;;;;;;;;;6140609;23;20373;-77
2022/11/15 08:56:56;;;;;;;621.70;556.50;;;;;;;;;;6139526;23;20705;-77
2022/11/15 08:59:22;;;;;;;623.93;558.73;;;;;;;;;;6140896;23;20386;-77
2022/11/15 09:01:48;;;;;;;630.90;565.40;;;;;;;;;;6140425;23;20377;-77
2022/11/15 09:04:15;;;;;;;634.53;568.83;;;;;;;;;;6115554;23;20377;-77
2022/11/15 09:06:41;;;;;;;623.13;557.92;;;;;;;;;;6139621;23;20404;-77
2022/11/15 09:09:07;;;;;;;624.97;559.67;;;;;;;;;;6141387;23;20459;-77
2022/11/15 09:11:33;;;;;;;621.08;555.92;;;;;;;;;;6140663;23;20370;-77
2022/11/15 09:13:59;;;;;;;624.03;558.75;;;;;;;;;;6140254;23;21166;-77
2022/11/15 09:16:25;;;;;;;622.43;557.27;;;;;;;;;;6139774;23;20373;-77
2022/11/15 09:18:51;;;;;;;630.50;564.97;;;;;;;;;;6140115;23;20436;-80
2022/11/15 09:21:17;;;;;;;634.13;568.42;;;;;;;;;;6113201;23;20373;-78
2022/11/15 09:23:43;;;;;;;630.97;565.50;;;;;;;;;;6138810;23;20701;-78
2022/11/15 09:26:09;;;;;;;634.95;569.53;;;;;;;;;;6114107;23;20373;-77
2022/11/15 09:28:36;;;;;;;634.83;569.33;;;;;;;;;;6140504;23;20429;-77
2022/11/15 09:31:06;;;;;;;638.28;572.58;;;;;;;;;;6116371;23;20405;-77
2022/11/15 09:33:32;;;;;;;638.20;572.60;;;;;;;;;;6116611;23;20403;-77
2022/11/15 09:36:02;;;;;;;636.27;570.77;;;;;;;;;;6140231;23;20457;-77
2022/11/15 09:38:28;;;;;;;638.47;572.92;;;;;;;;;;6141464;23;20400;-77
2022/11/15 09:40:59;;;;;;;635.45;570.05;;;;;;;;;;6117402;23;20388;-78
2022/11/15 09:43:25;;;;;;;641.75;576.00;;;;;;;;;;6140615;23;20408;-78
2022/11/15 09:46:09;;;;;;;642.10;576.33;;;;;;;;;;6140552;23;20769;-78
2022/11/15 09:48:49;;;;;;;634.83;569.33;;;;;;;;;;6141324;23;20393;-76
2022/11/15 09:51:21;;;;;;;641.40;575.67;;;;;;;;;;6139533;23;20393;-76
2022/11/15 09:53:55;;;;;;;639.17;573.57;;;;;;;;;;6140857;23;20452;-76
2022/11/15 09:56:23;;;;;;;640.35;574.55;;;;;;;;;;6167024;23;20886;-76
2022/11/15 09:58:59;;;;;;;643.72;578.10;;;;;;;;;;6140536;23;20387;-78
2022/11/15 10:01:37;;;;;;;653.80;587.77;;;;;;;;;;6139350;23;20560;-77
2022/11/15 10:04:03;;;;;;;650.55;584.50;;;;;;;;;;6138505;23;21286;-77
2022/11/15 10:06:30;;;;;;;647.33;581.53;;;;;;;;;;6139680;23;20389;-78
2022/11/15 10:09:06;;;;;;;649.20;583.40;;;;;;;;;;6141501;23;20503;-78
2022/11/15 10:11:34;;;;;;;648.97;583.17;;;;;;;;;;6141312;23;20373;-78
2022/11/15 10:14:02;;;;;;;653.85;587.75;;;;;;;;;;6140113;23;20758;-78
2022/11/15 10:16:28;;;;;;;646.40;580.60;;;;;;;;;;6116674;23;20373;-78
2022/11/15 10:19:04;;;;;;;656.22;590.13;;;;;;;;;;6116976;23;20387;-76
2022/11/15 10:21:34;;;;;;;656.85;590.63;;;;;;;;;;6141030;23;20373;-77
2022/11/15 10:24:01;;;;;;;657.03;591.03;;;;;;;;;;6140375;23;20777;-77
2022/11/15 10:26:28;;;;;;;655.65;589.65;;;;;;;;;;6113573;23;20409;-77
2022/11/15 10:28:54;;;;;;;659.33;593.20;;;;;;;;;;6166301;23;21042;-77
2022/11/15 10:31:25;;;;;;;662.57;596.37;;;;;;;;;;6140445;23;20493;-77
2022/11/15 10:33:51;;;;;;;663.85;597.63;;;;;;;;;;6140188;23;20856;-77
2022/11/15 10:36:22;;;;;;;667.85;601.45;;;;;;;;;;6117028;23;20826;-77
2022/11/15 10:38:49;;;;;;;675.90;609.30;;;;;;;;;;6141373;23;20778;-77
2022/11/15 10:41:15;;;;;;;679.78;613.08;;;;;;;;;;6140274;23;20440;-77
2022/11/15 10:43:42;;;;;;;680.22;613.55;;;;;;;;;;6140443;23;20428;-77
2022/11/15 10:46:21;;;;;;;683.60;616.80;;;;;;;;;;6139031;23;20423;-76
2022/11/15 10:48:47;;;;;;;679.25;612.55;;;;;;;;;;6141244;23;20728;-77
2022/11/15 10:51:28;;;;;;;683.47;616.60;;;;;;;;;;6139751;23;20681;-76
2022/11/15 10:53:55;;;;;;;682.30;615.60;;;;;;;;;;6112486;23;20488;-75
2022/11/15 10:56:22;;;;;;;680.42;613.83;;;;;;;;;;6166103;23;21255;-74
2022/11/15 10:58:53;;;;;;;684.53;617.72;;;;;;;;;;6139016;23;20784;-75
2022/11/15 11:01:22;;;;;;;681.67;615.08;;;;;;;;;;6164325;23;20377;-75
2022/11/15 11:04:08;;;;;;;687.42;620.65;;;;;;;;;;6138462;23;20373;-75
2022/11/15 11:06:48;;;;;;;685.53;618.72;;;;;;;;;;6138774;23;20776;-75
2022/11/15 11:09:30;;;;;;;685.10;618.28;;;;;;;;;;6139058;23;20393;-75
2022/11/15 11:11:56;;;;;;;687.83;621.03;;;;;;;;;;6164977;23;20472;-75
2022/11/15 11:14:27;;;;;;;688.00;621.10;;;;;;;;;;6164039;23;20366;-75
2022/11/15 11:17:12;;;;;;;682.92;616.22;;;;;;;;;;6139207;23;20385;-74
2022/11/15 11:19:38;;;;;;;691.10;624.10;;;;;;;;;;6138480;23;20427;-75
2022/11/15 11:22:04;;;;;;;683.92;617.13;;;;;;;;;;6139421;23;20420;-75
2022/11/15 11:24:49;;;;;;;690.75;623.83;;;;;;;;;;6139314;23;20562;-75
2022/11/15 11:27:15;;;;;;;694.15;627.15;;;;;;;;;;6138073;23;20389;-75
2022/11/15 11:29:44;;;;;;;698.28;631.08;;;;;;;;;;6114713;23;20401;-74
2022/11/15 11:32:28;;;;;;;700.00;632.70;;;;;;;;;;6139326;23;20416;-75
2022/11/15 11:34:54;;;;;;;699.40;632.28;;;;;;;;;;6138347;23;20380;-75
2022/11/15 11:37:40;;;;;;;700.28;633.08;;;;;;;;;;6137811;23;20382;-77
2022/11/15 11:40:21;;;;;;;705.22;637.83;;;;;;;;;;6166057;23;20415;-77
2022/11/15 11:42:53;;;;;;;704.50;637.28;;;;;;;;;;6142035;23;20380;-76
2022/11/15 11:45:25;;;;;;;703.75;636.40;;;;;;;;;;6141314;23;20895;-76
2022/11/15 11:48:13;;;;;;;707.47;640.08;;;;;;;;;;6141799;23;20480;-76
2022/11/15 11:50:40;;;;;;;708.53;640.92;;;;;;;;;;6142020;23;20845;-75
2022/11/15 11:53:15;;;;;;;703.22;636.13;;;;;;;;;;6168169;23;20372;-76
2022/11/15 11:55:46;;;;;;;705.90;638.50;;;;;;;;;;6142370;23;20596;-75
2022/11/15 11:58:15;;;;;;;701.88;634.63;;;;;;;;;;6141664;23;20443;-75
2022/11/15 12:00:45;;;;;;;706.58;639.17;;;;;;;;;;6139698;23;21014;-74
2022/11/15 12:03:22;;;;;;;711.47;643.78;;;;;;;;;;6166464;23;20445;-74
2022/11/15 12:05:57;;;;;;;702.90;635.60;;;;;;;;;;6139016;23;20836;-74
2022/11/15 12:08:23;;;;;;;702.15;634.95;;;;;;;;;;6166915;23;20686;-74
2022/11/15 12:10:52;;;;;;;705.35;638.00;;;;;;;;;;6167288;23;20425;-74
2022/11/15 12:13:21;;;;;;;713.00;645.20;;;;;;;;;;6139832;23;20381;-74
2022/11/15 12:15:53;;;;;;;701.83;634.65;;;;;;;;;;6139917;23;20389;-74
2022/11/15 12:18:19;;;;;;;700.38;633.22;;;;;;;;;;6167792;23;20934;-74
2022/11/15 12:20:53;;;;;;;706.08;638.67;;;;;;;;;;6139412;23;20487;-74
2022/11/15 12:23:25;;;;;;;702.67;635.47;;;;;;;;;;6166548;23;20420;-74
2022/11/15 12:25:54;;;;;;;702.00;634.30;;;;;;;;;;6139551;23;20399;-74
2022/11/15 12:28:32;;;;;;;702.75;635.63;;;;;;;;;;6116343;23;20476;-74
2022/11/15 12:31:01;;;;;;;701.72;634.63;;;;;;;;;;6139513;23;20487;-74
2022/11/15 12:33:35;;;;;;;707.50;640.13;;;;;;;;;;6166731;23;20365;-74
2022/11/15 12:36:03;;;;;;;706.15;638.75;;;;;;;;;;6138777;23;20389;-74
2022/11/15 12:38:48;;;;;;;711.72;644.13;;;;;;;;;;6140446;23;20376;-74
2022/11/15 12:41:16;;;;;;;709.40;642.00;;;;;;;;;;6139587;23;20759;-74
2022/11/15 12:43:43;;;;;;;708.72;641.22;;;;;;;;;;6116316;23;20848;-75
2022/11/15 12:46:33;;;;;;;707.53;640.17;;;;;;;;;;6139256;23;20392;-75
2022/11/15 12:48:59;;;;;;;712.45;644.92;;;;;;;;;;6135496;23;20717;-75
2022/11/15 12:51:43;;;;;;;710.95;643.55;;;;;;;;;;6138276;23;20400;-74
2022/11/15 12:54:24;;;;;;;707.22;639.88;;;;;;;;;;6140468;23;20383;-75
2022/11/15 12:57:06;;;;;;;710.13;642.73;;;;;;;;;;6140229;23;20435;-75
2022/11/15 12:59:47;;;;;;;712.22;644.67;;;;;;;;;;6138901;23;20389;-75
2022/11/15 13:02:22;;;;;;;712.03;644.53;;;;;;;;;;6137764;23;20385;-76
2022/11/15 13:04:48;;;;;;;710.22;642.72;;;;;;;;;;6139493;23;20385;-76
2022/11/15 13:07:33;;;;;;;711.45;644.05;;;;;;;;;;6139115;23;20500;-76
2022/11/15 13:09:59;;;;;;;710.13;642.55;;;;;;;;;;6114831;23;20448;-75
2022/11/15 13:12:29;;;;;;;712.50;645.08;;;;;;;;;;6139312;23;20429;-75
2022/11/15 13:15:02;;;;;;;710.08;642.67;;;;;;;;;;6139980;23;20384;-74
2022/11/15 13:17:35;;;;;;;713.45;646.00;;;;;;;;;;6139763;23;20381;-75
2022/11/15 13:20:14;;;;;;;717.17;649.58;;;;;;;;;;6116292;23;20615;-75
2022/11/15 13:22:54;;;;;;;703.88;636.67;;;;;;;;;;6165716;23;20376;-75
2022/11/15 13:25:26;;;;;;;710.10;642.70;;;;;;;;;;6139455;23;20385;-74
2022/11/15 13:27:54;;;;;;;714.17;646.67;;;;;;;;;;6139683;23;20410;-74
2022/11/15 13:30:31;;;;;;;717.08;649.33;;;;;;;;;;6139493;23;20504;-74
2022/11/15 13:33:00;;;;;;;710.78;643.33;;;;;;;;;;6140139;23;20369;-74
2022/11/15 13:35:28;;;;;;;721.10;653.20;;;;;;;;;;6137564;23;20681;-74
2022/11/15 13:37:55;;;;;;;712.97;645.47;;;;;;;;;;6139288;23;20464;-75
2022/11/15 13:40:23;;;;;;;711.03;643.53;;;;;;;;;;6139975;23;21034;-75
2022/11/15 13:42:50;;;;;;;703.25;636.05;;;;;;;;;;6140366;23;20713;-75
2022/11/15 13:45:17;;;;;;;711.75;644.15;;;;;;;;;;6138783;23;20377;-74
2022/11/15 13:47:43;;;;;;;708.22;640.78;;;;;;;;;;6138323;23;20958;-74
2022/11/15 13:50:13;;;;;;;712.55;645.17;;;;;;;;;;6138167;23;20446;-77
2022/11/15 13:52:42;;;;;;;702.17;635.08;;;;;;;;;;6139442;23;20396;-76
2022/11/15 13:55:13;;;;;;;707.22;639.97;;;;;;;;;;6139027;23;20844;-75
2022/11/15 13:57:55;;;;;;;702.40;635.20;;;;;;;;;;6138570;23;21205;-75
2022/11/15 14:00:26;;;;;;;704.88;637.67;;;;;;;;;;6138960;23;21091;-75
2022/11/15 14:02:54;;;;;;;701.55;634.28;;;;;;;;;;6138422;23;20580;-75
2022/11/15 14:05:25;;;;;;;699.17;632.17;;;;;;;;;;6136750;23;20417;-75
2022/11/15 14:07:55;;;;;;;697.22;630.33;;;;;;;;;;6139227;23;20472;-75
2022/11/15 14:10:35;;;;;;;705.90;638.47;;;;;;;;;;6139073;23;20373;-75
2022/11/15 14:13:03;;;;;;;694.20;627.20;;;;;;;;;;6138485;23;20409;-75
2022/11/15 14:15:29;;;;;;;693.97;626.93;;;;;;;;;;6138454;23;20805;-75